Frankfort, Illinois
Current Conditions -  °F | °C
As of 9:35 PM on Monday 22 Dec 2014 (Local Time) from KLOT Reporting Station
Drizzle Drizzle  
Wind Chill: 35°   Ceiling: 800
Heat Index: 41°   Visibility: 4mi
Dew Point: 41°   Wind: 10mph
Humidity: 99%   Direction: 130°SE
Pressure: 29.61"   Gusts: 16mph
Location:  41.5°N, 87.86°W
Report Text: KLOT 230335Z AUTO 13009G14KT 4SM DZ OVC008 05/05 A2961 RMK AO2 P0001 T00520051
Loading
Personal Weather Stations






























Interactive Weather Map New forecast layout! Learn more

10-Day Weather Forecast

Advertisements
Track Severe Weather on mobile